Time;durP1;ratioP1;P1;durP2;ratioP2;P2;SDS_P1;SDS_P2;PMS_P1;PMS_P2;Temp;Humidity;BMP_temperature;BMP_pressure;BME280_temperature;BME280_humidity;BME280_pressure;Samples;Min_cycle;Max_cycle;Signal;HPM_P1;HPM_P2
2022/12/09 00:01:28;;;;;;;;;48.75;39.00;;;;;6.43;62.10;100201.66;5059405;28;45480;-46
2022/12/09 00:03:54;;;;;;;;;46.75;39.25;;;;;6.45;62.10;100191.19;5059394;27;45335;-46
2022/12/09 00:06:22;;;;;;;;;51.00;38.50;;;;;6.44;62.02;100189.44;5059622;28;45255;-48
2022/12/09 00:08:48;;;;;;;;;44.50;38.00;;;;;6.45;62.21;100193.81;5059352;28;45464;-50
2022/12/09 00:11:14;;;;;;;;;57.75;41.00;;;;;6.44;61.94;100186.84;5059043;28;47112;-48
2022/12/09 00:13:40;;;;;;;;;50.75;39.50;;;;;6.45;61.93;100185.97;5059259;28;45409;-49
2022/12/09 00:16:10;;;;;;;;;42.25;34.00;;;;;6.44;62.15;100177.28;5059521;28;45186;-48
2022/12/09 00:18:35;;;;;;;;;49.75;39.25;;;;;6.44;62.13;100177.28;5046097;28;45332;-48
2022/12/09 00:21:10;;;;;;;;;43.50;35.75;;;;;6.44;62.18;100174.69;5059092;28;46071;-46
2022/12/09 00:23:36;;;;;;;;;46.00;35.25;;;;;6.43;62.22;100178.16;5047637;28;45257;-48
2022/12/09 00:26:01;;;;;;;;;41.25;32.25;;;;;6.42;62.21;100173.81;5059280;28;45494;-50
2022/12/09 00:28:26;;;;;;;;;44.25;36.75;;;;;6.44;62.19;100173.78;5059206;28;45350;-50
2022/12/09 00:30:52;;;;;;;;;33.25;30.00;;;;;6.40;62.05;100166.88;5059104;28;45421;-51
2022/12/09 00:33:17;;;;;;;;;42.50;37.75;;;;;6.43;62.21;100174.69;5059287;28;45236;-51
2022/12/09 00:35:42;;;;;;;;;39.75;35.50;;;;;6.43;62.13;100172.09;5059326;28;45186;-51
2022/12/09 00:38:08;;;;;;;;;48.00;37.00;;;;;6.42;62.29;100160.75;5059310;28;45303;-49
2022/12/09 00:40:33;;;;;;;;;42.50;37.25;;;;;6.43;62.34;100151.19;5059054;28;46425;-47
2022/12/09 00:42:58;;;;;;;;;49.50;37.50;;;;;6.44;62.10;100161.63;5058844;28;45345;-47
2022/12/09 00:45:23;;;;;;;;;51.00;39.75;;;;;6.46;62.16;100157.25;5042637;28;45419;-47
2022/12/09 00:47:49;;;;;;;;;39.00;33.75;;;;;6.46;62.21;100159.84;5058724;28;45488;-48
2022/12/09 00:50:14;;;;;;;;;42.75;36.25;;;;;6.48;62.14;100162.47;5052215;28;46040;-46
2022/12/09 00:52:39;;;;;;;;;36.50;31.75;;;;;6.45;62.24;100147.69;5058512;28;45231;-46
2022/12/09 00:55:05;;;;;;;;;48.25;38.00;;;;;6.47;62.24;100151.16;5059192;28;45236;-48
2022/12/09 00:57:30;;;;;;;;;49.50;38.75;;;;;6.50;62.11;100151.16;5058593;28;45623;-48
2022/12/09 00:59:56;;;;;;;;;48.75;37.75;;;;;6.50;62.41;100148.53;5062076;28;46088;-48
2022/12/09 01:02:21;;;;;;;;;41.25;36.25;;;;;6.48;62.23;100137.22;5062182;28;45263;-48
2022/12/09 01:04:50;;;;;;;;;38.50;33.75;;;;;6.50;62.40;100138.09;5062593;28;45319;-48
2022/12/09 01:07:15;;;;;;;;;40.00;34.75;;;;;6.51;62.19;100141.56;5060635;28;45601;-48
2022/12/09 01:09:40;;;;;;;;;40.25;33.50;;;;;6.51;62.31;100146.78;5062176;28;45999;-50
2022/12/09 01:12:05;;;;;;;;;40.75;35.00;;;;;6.50;62.37;100138.09;5061857;28;45318;-47
2022/12/09 01:14:31;;;;;;;;;36.50;32.75;;;;;6.48;62.44;100131.16;5067570;28;45406;-47
2022/12/09 01:16:56;;;;;;;;;40.75;35.00;;;;;6.50;62.20;100139.81;5062230;28;45500;-51
2022/12/09 01:19:21;;;;;;;;;37.75;33.25;;;;;6.50;62.23;100135.47;5062265;28;45223;-47
2022/12/09 01:21:47;;;;;;;;;37.00;33.25;;;;;6.50;62.43;100138.09;5056726;28;45422;-46
2022/12/09 01:24:12;;;;;;;;;42.00;33.00;;;;;6.48;62.04;100132.00;5059621;28;45432;-51
2022/12/09 01:26:38;;;;;;;;;34.00;31.25;;;;;6.52;62.36;100137.22;5049872;28;45525;-47
2022/12/09 01:29:04;;;;;;;;;33.50;28.50;;;;;6.48;62.21;100132.00;5058748;28;45342;-47
2022/12/09 01:31:29;;;;;;;;;40.75;33.25;;;;;6.52;62.42;100142.44;5061968;28;45308;-47
2022/12/09 01:33:55;;;;;;;;;40.75;34.25;;;;;6.51;62.53;100144.16;5062121;28;45337;-50
2022/12/09 01:36:28;;;;;;;;;44.00;35.25;;;;;6.51;62.37;100141.56;5062040;28;45220;-45
2022/12/09 01:38:56;;;;;;;;;31.75;28.00;;;;;6.50;62.46;100131.97;5049060;28;46059;-48
2022/12/09 01:41:21;;;;;;;;;42.25;36.00;;;;;6.48;62.45;100128.53;5056760;28;45284;-48
2022/12/09 01:44:11;;;;;;;;;42.25;35.50;;;;;6.48;62.37;100124.16;5054358;28;45446;-46
2022/12/09 01:46:37;;;;;;;;;34.50;28.75;;;;;6.47;62.69;100127.66;5051522;28;45314;-48
2022/12/09 01:49:03;;;;;;;;;38.25;35.00;;;;;6.49;62.26;100133.75;5054687;28;46378;-46
2022/12/09 01:51:30;;;;;;;;;40.75;35.50;;;;;6.49;62.43;100133.75;5061314;28;45371;-49
2022/12/09 01:53:55;;;;;;;;;34.75;30.75;;;;;6.48;62.46;100134.63;5061671;28;45224;-47
2022/12/09 01:56:33;;;;;;;;;36.25;33.50;;;;;6.48;62.45;100137.22;5054394;28;45469;-49
2022/12/09 01:59:05;;;;;;;;;36.75;31.25;;;;;6.48;62.36;100137.22;5061148;28;47262;-45
2022/12/09 02:01:31;;;;;;;;;40.00;33.25;;;;;6.47;62.50;100143.31;5061465;28;45429;-50
2022/12/09 02:03:57;;;;;;;;;41.75;29.50;;;;;6.47;62.45;100132.88;5061554;28;45442;-50
2022/12/09 02:06:23;;;;;;;;;30.25;30.25;;;;;6.47;62.41;100138.09;5061206;28;45519;-48
2022/12/09 02:08:50;;;;;;;;;39.00;34.00;;;;;6.45;62.45;100124.22;5061565;28;46087;-46
2022/12/09 02:11:47;;;;;;;;;30.00;27.75;;;;;6.46;62.42;100131.13;5060862;28;45728;-48
2022/12/09 02:14:38;;;;;;;;;37.00;32.75;;;;;6.45;62.51;100133.75;5060224;28;45290;-50
2022/12/09 02:17:24;;;;;;;;;37.50;32.50;;;;;6.41;62.59;100125.09;5049527;27;45445;-50
2022/12/09 02:20:14;;;;;;;;;36.00;29.50;;;;;6.42;62.34;100126.81;5076436;28;46341;-48
2022/12/09 02:22:47;;;;;;;;;37.25;31.00;;;;;6.42;62.24;100119.00;5061083;28;45247;-47
2022/12/09 02:25:48;;;;;;;;;35.50;30.50;;;;;6.41;62.20;100124.22;5061518;28;45239;-49
2022/12/09 02:28:38;;;;;;;;;38.50;32.50;;;;;6.39;62.28;100116.41;5048276;28;45475;-48
2022/12/09 02:31:25;;;;;;;;;45.75;34.25;;;;;6.39;62.46;100111.19;5060845;28;45352;-48
2022/12/09 02:34:03;;;;;;;;;38.25;35.25;;;;;6.39;62.40;100103.38;5060995;28;45286;-49
2022/12/09 02:36:36;;;;;;;;;43.25;34.25;;;;;6.38;62.28;100104.25;5061296;28;45299;-50
2022/12/09 02:39:02;;;;;;;;;33.00;32.50;;;;;6.39;62.32;100098.16;5060808;28;45438;-51
2022/12/09 02:41:32;;;;;;;;;29.75;24.75;;;;;6.40;62.29;100097.28;5060488;28;45390;-49
2022/12/09 02:44:07;;;;;;;;;39.75;33.00;;;;;6.38;62.38;100093.81;5059469;28;45305;-49
2022/12/09 02:46:35;;;;;;;;;39.50;34.75;;;;;6.38;62.29;100099.03;5049970;28;45473;-48
2022/12/09 02:49:01;;;;;;;;;33.75;28.00;;;;;6.37;62.34;100097.28;5053812;28;45248;-46
2022/12/09 02:51:32;;;;;;;;;41.25;30.25;;;;;6.37;62.34;100105.13;5060563;28;45291;-45
2022/12/09 02:54:03;;;;;;;;;39.50;33.75;;;;;6.37;62.42;100097.28;5057815;28;45228;-47
2022/12/09 02:56:30;;;;;;;;;38.00;35.00;;;;;6.38;62.51;100093.81;5076183;28;45355;-45
2022/12/09 02:58:56;;;;;;;;;40.50;34.00;;;;;6.37;62.46;100091.22;5060559;28;45251;-46
2022/12/09 03:01:41;;;;;;;;;44.50;34.50;;;;;6.39;62.43;100098.16;5060379;28;46501;-48
2022/12/09 03:04:09;;;;;;;;;45.75;35.25;;;;;6.38;62.57;100092.91;5048524;28;45257;-47
2022/12/09 03:06:41;;;;;;;;;53.00;39.00;;;;;6.37;62.56;100101.66;5060525;28;45220;-50
2022/12/09 03:09:11;;;;;;;;;46.50;36.50;;;;;6.33;62.44;100096.44;5060753;28;45278;-47
2022/12/09 03:11:38;;;;;;;;;52.50;38.00;;;;;6.36;62.36;100095.53;5059928;28;46348;-46
2022/12/09 03:14:16;;;;;;;;;41.75;35.25;;;;;6.36;62.54;100092.09;5060598;28;45382;-46
2022/12/09 03:16:53;;;;;;;;;39.50;26.75;;;;;6.37;62.39;100096.44;5060535;28;45358;-46
2022/12/09 03:19:32;;;;;;;;;40.50;32.25;;;;;6.37;62.63;100099.03;5060323;28;45236;-47
2022/12/09 03:22:06;;;;;;;;;36.75;33.00;;;;;6.34;62.91;100092.09;5059833;28;46549;-46
2022/12/09 03:24:56;;;;;;;;;43.25;34.25;;;;;6.33;62.65;100085.13;5060395;28;45311;-47
2022/12/09 03:27:27;;;;;;;;;39.75;31.75;;;;;6.30;62.50;100080.81;5060140;28;45390;-47
2022/12/09 03:29:55;;;;;;;;;41.25;34.50;;;;;6.32;62.67;100083.41;5047577;28;45336;-47
2022/12/09 03:32:25;;;;;;;;;43.00;35.00;;;;;6.29;62.57;100083.41;5059996;28;46312;-45
2022/12/09 03:34:57;;;;;;;;;41.50;37.50;;;;;6.30;62.43;100083.41;5060621;27;45289;-46
2022/12/09 03:37:22;;;;;;;;;49.75;38.00;;;;;6.29;62.55;100078.19;5060225;28;45350;-46
2022/12/09 03:39:50;;;;;;;;;45.25;34.25;;;;;6.28;62.55;100081.69;5060215;28;45234;-46
2022/12/09 03:42:25;;;;;;;;;41.25;32.75;;;;;6.25;62.56;100073.88;5059394;28;45346;-46
2022/12/09 03:45:01;;;;;;;;;44.00;36.50;;;;;6.24;62.49;100074.75;5051554;28;45399;-48
2022/12/09 03:47:27;;;;;;;;;51.50;38.25;;;;;6.23;62.40;100070.44;5056531;28;45416;-46
2022/12/09 03:49:53;;;;;;;;;42.50;35.50;;;;;6.22;62.43;100072.16;5052963;28;45330;-46
2022/12/09 03:52:25;;;;;;;;;51.00;38.75;;;;;6.20;62.45;100068.72;5059269;28;46336;-48
2022/12/09 03:54:58;;;;;;;;;41.50;37.00;;;;;6.20;62.49;100067.81;5059976;28;45338;-47
2022/12/09 03:57:24;;;;;;;;;41.25;35.00;;;;;6.17;62.72;100066.09;5059592;28;45367;-48
2022/12/09 03:59:59;;;;;;;;;45.50;38.25;;;;;6.15;62.62;100068.72;5059808;28;45186;-46
2022/12/09 04:02:25;;;;;;;;;36.75;30.50;;;;;6.13;62.50;100062.66;5059157;28;46514;-46
2022/12/09 04:04:51;;;;;;;;;40.50;34.75;;;;;6.10;62.36;100054.84;5058229;28;45805;-47
2022/12/09 04:07:17;;;;;;;;;40.00;32.50;;;;;6.07;62.44;100049.66;5059359;28;45276;-48
2022/12/09 04:09:42;;;;;;;;;38.00;31.50;;;;;6.06;62.46;100063.56;5059750;28;45341;-47
2022/12/09 04:12:08;;;;;;;;;43.25;35.50;;;;;6.04;62.46;100048.78;5059032;28;46055;-49
2022/12/09 04:14:33;;;;;;;;;38.75;32.00;;;;;6.00;62.45;100051.44;5059552;28;45503;-47
2022/12/09 04:16:59;;;;;;;;;36.00;30.00;;;;;5.98;62.32;100050.56;5059740;28;45652;-46
2022/12/09 04:19:24;;;;;;;;;32.50;26.75;;;;;5.95;62.34;100053.19;5059468;28;45316;-45
2022/12/09 04:21:49;;;;;;;;;37.00;32.00;;;;;5.94;62.58;100047.97;5059377;28;45378;-45
2022/12/09 04:24:15;;;;;;;;;32.25;28.50;;;;;5.92;62.44;100049.72;5059468;28;45423;-50
2022/12/09 04:26:40;;;;;;;;;47.75;34.50;;;;;5.91;62.24;100054.09;5059382;28;45282;-49
2022/12/09 04:29:05;;;;;;;;;39.75;34.50;;;;;5.87;62.51;100049.75;5059277;28;45529;-46
2022/12/09 04:31:31;;;;;;;;;33.00;27.75;;;;;5.89;62.38;100050.59;5059396;28;45998;-47
2022/12/09 04:33:57;;;;;;;;;30.75;27.75;;;;;5.87;62.35;100057.56;5061142;28;45319;-48
2022/12/09 04:36:22;;;;;;;;;34.50;32.50;;;;;5.84;62.24;100054.97;5063246;28;45158;-47
2022/12/09 04:38:47;;;;;;;;;33.50;31.25;;;;;5.82;62.33;100057.59;5062894;28;45233;-46
2022/12/09 04:41:14;;;;;;;;;37.50;32.75;;;;;5.80;62.44;100058.50;5062202;28;46109;-46
2022/12/09 04:43:39;;;;;;;;;28.25;26.25;;;;;5.78;62.50;100061.09;5062769;28;45221;-47
2022/12/09 04:46:09;;;;;;;;;37.25;27.50;;;;;5.77;62.58;100055.88;5048025;28;45153;-47
2022/12/09 04:48:34;;;;;;;;;34.00;30.50;;;;;5.73;62.30;100054.19;5056537;28;45437;-48
2022/12/09 04:51:00;;;;;;;;;38.00;29.00;;;;;5.74;62.27;100059.38;5061804;28;45252;-49
2022/12/09 04:53:26;;;;;;;;;40.25;32.50;;;;;5.71;62.24;100051.59;5062218;28;45302;-46
2022/12/09 04:56:13;;;;;;;;;36.50;31.00;;;;;5.68;62.30;100046.38;5062531;28;45346;-45
2022/12/09 04:58:39;;;;;;;;;30.75;26.25;;;;;5.69;62.23;100051.56;5062601;28;45233;-48
2022/12/09 05:01:13;;;;;;;;;34.25;27.25;;;;;5.67;62.50;100061.16;5062350;28;45530;-50
2022/12/09 05:03:39;;;;;;;;;31.75;27.25;;;;;5.64;62.45;100061.16;5062397;28;45189;-46
2022/12/09 05:06:07;;;;;;;;;33.25;29.75;;;;;5.62;62.48;100060.31;5062407;28;45197;-46
2022/12/09 05:08:32;;;;;;;;;33.00;25.75;;;;;5.61;62.20;100062.91;5062237;28;45398;-46
2022/12/09 05:10:59;;;;;;;;;33.75;28.50;;;;;5.58;62.22;100057.72;5061950;28;46038;-48
2022/12/09 05:13:27;;;;;;;;;34.00;31.00;;;;;5.56;61.97;100060.34;5062127;27;45300;-45
2022/12/09 05:16:03;;;;;;;;;34.75;33.00;;;;;5.57;62.13;100062.06;5062461;28;45239;-45
2022/12/09 05:18:29;;;;;;;;;29.25;23.50;;;;;5.56;62.43;100054.25;5062173;28;45484;-46
2022/12/09 05:20:55;;;;;;;;;29.75;25.25;;;;;5.54;62.37;100060.31;5057429;28;47276;-48
2022/12/09 05:23:20;;;;;;;;;31.00;23.25;;;;;5.53;62.23;100060.34;5061992;28;45326;-45
2022/12/09 05:25:46;;;;;;;;;35.00;33.00;;;;;5.53;62.40;100062.94;5062338;28;45331;-47
2022/12/09 05:28:11;;;;;;;;;30.75;27.00;;;;;5.52;62.45;100063.81;5061775;28;45264;-47
2022/12/09 05:30:37;;;;;;;;;28.50;25.00;;;;;5.51;62.31;100065.56;5061989;28;45257;-45
2022/12/09 05:33:02;;;;;;;;;31.00;26.50;;;;;5.50;62.32;100060.38;5061936;28;45394;-45
2022/12/09 05:35:28;;;;;;;;;25.50;22.00;;;;;5.47;62.11;100063.84;5062210;28;45355;-47
2022/12/09 05:37:53;;;;;;;;;26.50;23.50;;;;;5.46;62.28;100061.22;5062868;27;45555;-49
2022/12/09 05:40:18;;;;;;;;;27.75;25.00;;;;;5.45;62.16;100067.34;5066750;28;46939;-47
2022/12/09 05:42:44;;;;;;;;;27.25;24.50;;;;;5.43;62.72;100062.13;5061356;28;45710;-46
2022/12/09 05:45:10;;;;;;;;;32.25;21.25;;;;;5.41;62.12;100063.00;5048645;28;45552;-46
2022/12/09 05:47:36;;;;;;;;;26.00;20.50;;;;;5.41;62.13;100066.47;5059277;28;45315;-47
2022/12/09 05:50:02;;;;;;;;;29.25;24.75;;;;;5.40;62.27;100061.28;5061518;28;47307;-47
2022/12/09 05:52:28;;;;;;;;;26.50;22.25;;;;;5.39;62.08;100062.16;5061243;28;45181;-47
2022/12/09 05:54:53;;;;;;;;;24.75;19.75;;;;;5.38;61.99;100063.88;5061672;28;45505;-47
2022/12/09 05:57:19;;;;;;;;;24.50;20.00;;;;;5.36;62.30;100066.50;5061341;28;45258;-50
2022/12/09 05:59:44;;;;;;;;;24.50;17.75;;;;;5.35;62.11;100064.75;5061597;28;45245;-48
2022/12/09 06:02:09;;;;;;;;;27.25;24.00;;;;;5.34;62.15;100068.22;5061312;28;45197;-47
2022/12/09 06:04:35;;;;;;;;;21.25;19.00;;;;;5.32;62.38;100066.50;5057324;28;45310;-48
2022/12/09 06:07:00;;;;;;;;;18.00;17.00;;;;;5.32;62.24;100070.00;5059320;28;45618;-46
2022/12/09 06:09:26;;;;;;;;;18.50;17.00;;;;;5.31;62.42;100065.63;5061391;28;45559;-48
2022/12/09 06:11:51;;;;;;;;;21.50;18.50;;;;;5.30;62.12;100073.47;5076536;28;45274;-48
2022/12/09 06:14:17;;;;;;;;;26.50;22.00;;;;;5.30;62.01;100078.69;5061500;28;45192;-48
2022/12/09 06:16:42;;;;;;;;;24.00;22.00;;;;;5.31;62.08;100083.03;5061333;28;45429;-49
2022/12/09 06:19:11;;;;;;;;;26.75;23.00;;;;;5.30;62.07;100079.53;5076819;27;45429;-48
2022/12/09 06:21:39;;;;;;;;;23.75;22.25;;;;;5.30;62.17;100081.28;5061119;28;45377;-49
2022/12/09 06:24:05;;;;;;;;;28.00;21.75;;;;;5.28;62.17;100077.81;5061309;28;45327;-46
2022/12/09 06:26:30;;;;;;;;;27.50;21.25;;;;;5.29;62.19;100087.38;5060996;27;45473;-49
2022/12/09 06:28:56;;;;;;;;;25.75;23.25;;;;;5.30;62.06;100091.72;5061155;28;45356;-49
2022/12/09 06:31:22;;;;;;;;;18.25;18.25;;;;;5.27;62.07;100089.97;5061278;28;45780;-49
2022/12/09 06:33:48;;;;;;;;;21.50;19.25;;;;;5.26;61.84;100101.28;5061136;28;45421;-49
2022/12/09 06:36:14;;;;;;;;;23.25;18.00;;;;;5.25;62.19;100093.47;5061066;28;45331;-47
2022/12/09 06:38:40;;;;;;;;;26.00;19.25;;;;;5.23;62.02;100092.59;5060794;28;46135;-49
2022/12/09 06:41:10;;;;;;;;;24.75;21.00;;;;;5.20;61.94;100088.25;5076172;27;45339;-49
2022/12/09 06:43:36;;;;;;;;;27.00;20.50;;;;;5.20;62.11;100089.09;5057144;28;45532;-48
2022/12/09 06:46:09;;;;;;;;;13.00;13.00;;;;;5.18;62.08;100090.88;5046730;28;45498;-48
2022/12/09 06:48:34;;;;;;;;;22.25;18.75;;;;;5.18;62.18;100084.78;5054159;28;45509;-49
2022/12/09 06:51:00;;;;;;;;;21.50;17.00;;;;;5.17;61.84;100089.13;5059668;28;45208;-51
2022/12/09 06:53:25;;;;;;;;;25.25;20.25;;;;;5.14;62.07;100083.91;5059201;28;45290;-49
2022/12/09 06:55:50;;;;;;;;;31.50;22.75;;;;;5.10;61.96;100082.19;5059553;28;45200;-49
2022/12/09 06:58:16;;;;;;;;;24.00;21.50;;;;;5.13;61.83;100092.63;5060384;28;45228;-47
2022/12/09 07:00:41;;;;;;;;;25.00;23.00;;;;;5.12;61.90;100093.50;5060550;28;45277;-49
2022/12/09 07:03:09;;;;;;;;;20.75;20.75;;;;;5.05;61.75;100084.81;5060478;28;45278;-48
2022/12/09 07:05:35;;;;;;;;;30.00;20.50;;;;;5.11;61.77;100096.09;5060109;27;45318;-48
2022/12/09 07:08:00;;;;;;;;;28.50;23.50;;;;;5.06;61.79;100090.91;5076033;28;47336;-49
2022/12/09 07:10:27;;;;;;;;;23.50;22.50;;;;;5.04;61.90;100096.13;5060383;28;45382;-47
2022/12/09 07:12:52;;;;;;;;;28.50;23.50;;;;;5.05;61.76;100095.22;5060089;28;45269;-47
2022/12/09 07:15:17;;;;;;;;;42.50;36.00;;;;;5.01;62.08;100093.50;5060572;28;45212;-49
2022/12/09 07:17:43;;;;;;;;;30.25;25.75;;;;;5.02;61.85;100102.19;5060407;28;46273;-47
2022/12/09 07:20:08;;;;;;;;;22.00;18.00;;;;;5.01;61.83;100100.47;5060263;28;45219;-48
2022/12/09 07:22:34;;;;;;;;;28.50;22.00;;;;;4.99;61.81;100103.06;5060166;28;45734;-50
2022/12/09 07:25:00;;;;;;;;;28.50;24.00;;;;;4.98;61.72;100108.25;5060313;28;45467;-48
2022/12/09 07:27:25;;;;;;;;;19.00;18.75;;;;;4.97;62.09;100111.72;5059787;28;46309;-49
2022/12/09 07:29:50;;;;;;;;;29.50;23.75;;;;;4.96;61.70;100112.63;5060381;28;45286;-47
2022/12/09 07:32:16;;;;;;;;;26.00;24.00;;;;;4.93;61.67;100113.50;5075863;28;45328;-47
2022/12/09 07:34:41;;;;;;;;;23.00;20.00;;;;;4.94;62.08;100116.94;5060321;28;45480;-49
2022/12/09 07:37:07;;;;;;;;;27.75;23.50;;;;;4.92;61.86;100110.88;5059910;28;46078;-49
2022/12/09 07:39:32;;;;;;;;;22.50;21.00;;;;;4.85;61.72;100104.81;5075719;28;45438;-47
2022/12/09 07:41:58;;;;;;;;;23.50;20.75;;;;;4.87;61.85;100103.94;5075116;27;45477;-50
2022/12/09 07:44:27;;;;;;;;;22.00;18.00;;;;;4.87;61.69;100105.69;5051693;28;45478;-47
2022/12/09 07:46:53;;;;;;;;;30.75;25.75;;;;;4.86;61.99;100114.34;5050388;28;46518;-50
2022/12/09 07:49:19;;;;;;;;;29.50;21.25;;;;;4.83;61.63;100120.44;5052954;28;45245;-46
2022/12/09 07:51:45;;;;;;;;;34.25;30.50;;;;;4.82;61.74;100123.91;5059547;28;45194;-49
2022/12/09 07:54:15;;;;;;;;;28.00;23.75;;;;;4.77;61.90;100122.16;5058425;28;45327;-46
2022/12/09 07:56:41;;;;;;;;;26.75;21.25;;;;;4.77;61.94;100125.66;5059423;28;45378;-46
2022/12/09 07:59:07;;;;;;;;;17.75;15.50;;;;;4.76;61.53;100129.09;5058331;28;45356;-50
2022/12/09 08:01:34;;;;;;;;;19.50;15.50;;;;;4.74;61.77;100130.84;5059648;28;45418;-46
2022/12/09 08:04:00;;;;;;;;;22.75;20.50;;;;;4.72;61.68;100136.03;5046377;28;45239;-47
2022/12/09 08:06:28;;;;;;;;;16.75;15.75;;;;;4.69;61.89;100133.47;5059479;28;45505;-49
2022/12/09 08:08:56;;;;;;;;;21.50;18.00;;;;;4.67;61.69;100135.19;5058423;28;45399;-48
2022/12/09 08:11:23;;;;;;;;;24.75;17.25;;;;;4.55;61.68;100125.66;5056750;28;45367;-49
2022/12/09 08:13:49;;;;;;;;;24.50;21.50;;;;;4.61;61.61;100139.53;5078864;28;45324;-50
2022/12/09 08:16:17;;;;;;;;;19.50;18.50;;;;;4.61;61.61;100144.72;5063017;28;46303;-50
2022/12/09 08:18:43;;;;;;;;;21.25;20.25;;;;;4.58;61.51;100139.50;5063008;28;45350;-47
2022/12/09 08:21:15;;;;;;;;;21.25;18.25;;;;;4.58;61.69;100139.50;5062842;28;45248;-48
2022/12/09 08:23:41;;;;;;;;;22.75;15.25;;;;;4.54;61.57;100136.91;5062993;28;45352;-48
2022/12/09 08:26:07;;;;;;;;;22.25;17.75;;;;;4.54;61.84;100136.03;5062354;28;45370;-47
2022/12/09 08:28:32;;;;;;;;;17.75;16.75;;;;;4.51;61.48;100134.28;5072063;28;45395;-47
2022/12/09 08:30:58;;;;;;;;;19.50;17.00;;;;;4.51;61.60;100141.25;5062981;28;46601;-47
2022/12/09 08:33:24;;;;;;;;;22.00;19.50;;;;;4.50;61.41;100143.00;5062877;28;45512;-47
2022/12/09 08:35:49;;;;;;;;;16.25;13.75;;;;;4.47;61.68;100145.56;5062759;28;45462;-50
2022/12/09 08:38:15;;;;;;;;;21.00;16.50;;;;;4.48;61.37;100155.13;5061541;28;45382;-47
2022/12/09 08:40:40;;;;;;;;;17.25;14.25;;;;;4.44;61.16;100145.59;5062963;28;45837;-46
2022/12/09 08:43:07;;;;;;;;;18.25;15.50;;;;;4.47;61.42;100142.97;5074489;28;45559;-46
2022/12/09 08:45:36;;;;;;;;;21.00;16.75;;;;;4.47;61.73;100147.31;5058592;28;46664;-47
2022/12/09 08:48:01;;;;;;;;;24.25;18.75;;;;;4.47;61.77;100148.19;5061238;28;45298;-47
2022/12/09 08:50:26;;;;;;;;;18.75;16.25;;;;;4.45;61.74;100139.50;5055985;28;45259;-47
2022/12/09 08:52:52;;;;;;;;;17.00;16.50;;;;;4.46;61.41;100150.78;5062000;27;45156;-47
2022/12/09 08:55:17;;;;;;;;;21.00;16.50;;;;;4.44;61.76;100136.88;5077974;27;47501;-47
2022/12/09 08:57:42;;;;;;;;;16.75;14.00;;;;;4.46;61.50;100149.03;5062189;28;45295;-48
2022/12/09 09:00:09;;;;;;;;;25.75;21.50;;;;;4.45;61.44;100142.09;5062563;28;45292;-48
2022/12/09 09:02:34;;;;;;;;;26.25;22.00;;;;;4.47;61.60;100148.19;5062329;28;45299;-50
2022/12/09 09:05:00;;;;;;;;;24.00;22.75;;;;;4.48;61.49;100151.66;5062227;28;45606;-48
2022/12/09 09:07:25;;;;;;;;;34.25;26.25;;;;;4.48;61.80;100151.66;5062209;28;45272;-50
2022/12/09 09:09:51;;;;;;;;;27.50;24.75;;;;;4.49;61.53;100156.88;5066534;28;45328;-49
2022/12/09 09:12:16;;;;;;;;;33.25;26.00;;;;;4.51;61.65;100159.47;5061987;28;45253;-50
2022/12/09 09:14:41;;;;;;;;;34.00;26.00;;;;;4.52;61.60;100156.84;5062220;28;45414;-47
2022/12/09 09:17:07;;;;;;;;;27.25;24.25;;;;;4.51;61.69;100155.13;5062259;28;45375;-47
2022/12/09 09:19:32;;;;;;;;;27.50;26.25;;;;;4.51;61.76;100149.91;5061561;28;45391;-49
2022/12/09 09:21:57;;;;;;;;;28.50;22.50;;;;;4.53;61.53;100153.38;5062106;28;45178;-47
2022/12/09 09:24:24;;;;;;;;;23.50;22.50;;;;;4.53;61.47;100156.00;5061975;28;45244;-47
2022/12/09 09:26:51;;;;;;;;;35.25;27.50;;;;;4.54;61.61;100149.03;5077434;28;45352;-48
2022/12/09 09:29:19;;;;;;;;;34.25;24.50;;;;;4.56;61.83;100149.91;5062140;28;45232;-46
2022/12/09 09:31:48;;;;;;;;;33.00;27.50;;;;;4.53;61.70;100147.34;5061955;28;45429;-48
2022/12/09 09:34:16;;;;;;;;;32.50;30.75;;;;;4.55;61.55;100148.19;5060499;28;46295;-50
2022/12/09 09:36:42;;;;;;;;;26.50;18.00;;;;;4.58;61.75;100152.53;5062214;28;45311;-50
2022/12/09 09:39:08;;;;;;;;;35.50;33.00;;;;;4.61;61.65;100152.53;5061910;27;45289;-47
2022/12/09 09:42:00;;;;;;;;;43.75;33.50;;;;;4.67;61.57;100157.75;5061530;28;45396;-49
2022/12/09 09:44:39;;;;;;;;;33.25;28.00;;;;;4.70;61.64;100157.75;5046192;28;46061;-49
2022/12/09 09:47:26;;;;;;;;;36.25;33.00;;;;;4.70;61.74;100162.94;5055280;28;45427;-47
2022/12/09 09:49:53;;;;;;;;;39.25;31.25;;;;;4.74;61.70;100162.06;5054841;28;45520;-45
2022/12/09 09:52:22;;;;;;;;;34.50;28.00;;;;;4.77;61.53;100166.41;5059938;28;45522;-46
2022/12/09 09:54:51;;;;;;;;;42.25;34.75;;;;;4.79;61.88;100164.69;5077424;27;46878;-46
2022/12/09 09:57:29;;;;;;;;;37.75;33.25;;;;;4.82;61.75;100165.56;5059964;28;45439;-48
2022/12/09 10:00:03;;;;;;;;;39.50;35.25;;;;;4.84;61.88;100157.75;5061797;28;45262;-49
2022/12/09 10:02:50;;;;;;;;;41.25;35.00;;;;;4.85;61.86;100157.72;5048551;28;45255;-48
2022/12/09 10:05:25;;;;;;;;;44.25;37.75;;;;;4.87;61.58;100156.00;5061322;28;45259;-48
2022/12/09 10:07:55;;;;;;;;;40.00;35.00;;;;;4.88;61.70;100151.69;5047998;28;45470;-48
2022/12/09 10:10:39;;;;;;;;;38.00;34.25;;;;;4.91;61.56;100158.63;5060111;28;45283;-47
2022/12/09 10:13:19;;;;;;;;;29.25;29.00;;;;;4.91;61.50;100156.03;5060951;28;45282;-51
2022/12/09 10:16:15;;;;;;;;;37.50;33.75;;;;;4.93;61.50;100141.25;5061503;28;46133;-49
2022/12/09 10:19:01;;;;;;;;;45.00;36.50;;;;;4.95;61.70;100145.59;5043558;28;45330;-46
2022/12/09 10:21:29;;;;;;;;;41.00;34.00;;;;;4.95;61.48;100140.38;5059982;28;45206;-46
2022/12/09 10:23:57;;;;;;;;;38.50;32.75;;;;;4.98;61.49;100140.41;5076954;28;45516;-47
2022/12/09 10:26:25;;;;;;;;;36.50;30.75;;;;;5.05;61.75;100143.84;5060606;28;45228;-48
2022/12/09 10:29:10;;;;;;;;;31.50;25.75;;;;;5.07;61.44;100136.03;5061251;28;45244;-47
2022/12/09 10:31:35;;;;;;;;;39.50;33.25;;;;;5.12;61.73;100135.16;5059961;28;45314;-51
2022/12/09 10:34:01;;;;;;;;;38.25;34.75;;;;;5.14;61.48;100133.41;5076562;28;45240;-50
2022/12/09 10:36:29;;;;;;;;;38.75;35.75;;;;;5.18;61.80;100129.94;5061209;28;46136;-51
2022/12/09 10:38:54;;;;;;;;;41.50;33.50;;;;;5.21;61.69;100127.31;5060776;27;45322;-48
2022/12/09 10:44:26;;;;;;;;;37.00;31.25;;;;;5.37;61.80;100122.06;5052337;28;45529;-51
2022/12/09 10:47:19;;;;;;;;;46.25;38.00;;;;;5.43;61.60;100127.25;5052499;28;45416;-49
2022/12/09 10:49:47;;;;;;;;;47.50;38.25;;;;;5.49;61.83;100116.81;5048767;28;45474;-49
2022/12/09 10:52:24;;;;;;;;;42.75;35.75;;;;;5.55;61.71;100105.53;5041684;28;45399;-48
2022/12/09 10:54:50;;;;;;;;;47.25;38.00;;;;;5.63;61.78;100110.69;5060904;28;45146;-47
2022/12/09 10:57:15;;;;;;;;;47.50;38.25;;;;;5.70;61.83;100112.41;5075951;28;45956;-49
2022/12/09 10:59:54;;;;;;;;;49.25;39.00;;;;;5.76;61.67;100115.00;5060698;28;45265;-46
2022/12/09 11:02:21;;;;;;;;;47.50;39.25;;;;;5.89;61.72;100117.53;5060627;28;45476;-49
2022/12/09 11:04:47;;;;;;;;;52.75;39.00;;;;;5.94;61.79;100098.38;5059319;28;45431;-49
2022/12/09 11:07:26;;;;;;;;;46.50;38.75;;;;;6.06;61.85;100100.06;5055904;28;46409;-48
2022/12/09 11:09:55;;;;;;;;;51.25;38.50;;;;;6.16;61.71;100099.16;5076027;27;45442;-46
2022/12/09 11:12:35;;;;;;;;;49.50;38.50;;;;;6.25;61.88;100092.16;5060337;27;45283;-49
2022/12/09 11:15:05;;;;;;;;;53.75;39.75;;;;;6.32;61.89;100099.06;5060331;28;45523;-48
2022/12/09 11:17:34;;;;;;;;;48.00;37.75;;;;;6.41;61.74;100090.31;5060331;28;45464;-50
2022/12/09 11:20:31;;;;;;;;;50.25;38.25;;;;;6.49;61.70;100097.19;5075909;27;45427;-48
2022/12/09 11:23:14;;;;;;;;;48.00;41.50;;;;;6.58;61.70;100092.75;5057397;28;45562;-48
2022/12/09 11:25:52;;;;;;;;;40.25;37.50;;;;;6.68;61.49;100094.44;5060017;28;45251;-47
2022/12/09 11:28:17;;;;;;;;;47.50;40.50;;;;;6.77;61.58;100085.66;5047630;28;46329;-45